createdAt,value
2018-07-03T00:01:16.253Z,59.70
2018-07-03T00:03:43.797Z,60.10
2018-07-03T00:06:11.423Z,60.80
2018-07-03T00:08:38.997Z,61.10
2018-07-03T00:11:06.656Z,61.70
2018-07-03T00:13:34.300Z,62.30
2018-07-03T00:16:02.172Z,63.20
2018-07-03T00:18:29.859Z,63.30
2018-07-03T00:20:57.429Z,63.30
2018-07-03T00:23:26.366Z,63.70
2018-07-03T00:25:54.018Z,63.90
2018-07-03T00:28:21.545Z,64.20
2018-07-03T00:30:49.121Z,64.20
2018-07-03T00:33:16.691Z,64.30
2018-07-03T00:35:44.261Z,64.80
2018-07-03T00:38:12.602Z,64.70
2018-07-03T00:40:40.194Z,64.90
2018-07-03T00:43:07.801Z,65.00
2018-07-03T00:45:35.368Z,65.40
2018-07-03T00:48:03.035Z,66.30
2018-07-03T00:50:30.933Z,66.20
2018-07-03T00:52:58.494Z,66.90
2018-07-03T00:55:26.148Z,66.70
2018-07-03T00:57:53.704Z,67.30
2018-07-03T01:00:32.425Z,67.60
2018-07-03T01:03:03.449Z,68.00
2018-07-03T01:05:31.526Z,68.30
2018-07-03T01:07:59.569Z,68.20
2018-07-03T01:10:27.571Z,68.50
2018-07-03T01:12:55.726Z,68.50
2018-07-03T01:15:23.548Z,68.60
2018-07-03T01:17:51.148Z,68.40
2018-07-03T01:20:18.712Z,68.90
2018-07-03T01:22:46.330Z,69.00
2018-07-03T01:25:13.892Z,69.40
2018-07-03T01:27:42.414Z,68.70
2018-07-03T01:30:09.978Z,69.10
2018-07-03T01:32:37.693Z,69.40
2018-07-03T01:35:05.385Z,69.50
2018-07-03T01:37:32.970Z,70.00
2018-07-03T01:40:00.549Z,69.80
2018-07-03T01:42:28.412Z,70.10
2018-07-03T01:44:56.754Z,70.70
2018-07-03T01:47:24.560Z,70.90
2018-07-03T01:49:52.136Z,71.30
2018-07-03T01:52:19.710Z,71.40
2018-07-03T01:54:47.402Z,71.90
2018-07-03T01:57:15.089Z,71.50
2018-07-03T01:59:42.665Z,71.80
2018-07-03T02:02:10.237Z,71.70
2018-07-03T02:04:37.897Z,72.40
2018-07-03T02:07:05.857Z,72.20
2018-07-03T02:09:34.281Z,72.20
2018-07-03T02:12:01.878Z,72.60
2018-07-03T02:14:29.457Z,72.20
2018-07-03T02:16:57.086Z,72.40
2018-07-03T02:19:24.651Z,72.30
2018-07-03T02:21:52.202Z,72.60
2018-07-03T02:24:19.764Z,72.80
2018-07-03T02:26:47.381Z,72.80
2018-07-03T02:29:14.956Z,72.80
2018-07-03T02:31:43.685Z,73.30
2018-07-03T02:34:11.427Z,73.00
2018-07-03T02:36:38.992Z,73.20
2018-07-03T02:39:07.683Z,73.00
2018-07-03T02:41:35.210Z,73.30
2018-07-03T02:44:03.689Z,73.40
2018-07-03T02:46:31.826Z,73.70
2018-07-03T02:48:59.385Z,74.20
2018-07-03T02:51:26.929Z,74.20
2018-07-03T02:53:54.561Z,74.50
2018-07-03T02:56:22.143Z,74.10
2018-07-03T02:58:50.868Z,74.60
2018-07-03T03:01:18.446Z,74.40
2018-07-03T03:03:46.097Z,74.50
2018-07-03T03:06:13.682Z,75.50
2018-07-03T03:08:41.263Z,75.00
2018-07-03T03:11:08.810Z,75.10
2018-07-03T03:13:36.408Z,75.40
2018-07-03T03:16:04.170Z,75.50
2018-07-03T03:18:31.760Z,75.40
2018-07-03T03:20:59.355Z,75.80
2018-07-03T03:23:26.961Z,75.00
2018-07-03T03:25:54.705Z,75.50
2018-07-03T03:28:22.317Z,75.50
2018-07-03T03:30:49.914Z,75.60
2018-07-03T03:33:17.505Z,75.70
2018-07-03T03:35:45.060Z,75.70
2018-07-03T03:38:12.665Z,76.00
2018-07-03T03:40:40.249Z,76.20
2018-07-03T03:43:08.006Z,76.30
2018-07-03T03:45:35.597Z,76.90
2018-07-03T03:48:03.214Z,76.50
2018-07-03T03:50:30.916Z,76.40
2018-07-03T03:52:58.746Z,76.30
2018-07-03T03:55:26.317Z,76.70
2018-07-03T03:57:53.886Z,76.00
2018-07-03T04:00:21.441Z,76.30
2018-07-03T04:02:49.027Z,75.40
2018-07-03T04:05:17.015Z,75.90
2018-07-03T04:07:44.680Z,75.60
2018-07-03T04:10:12.273Z,76.30
2018-07-03T04:12:40.609Z,76.30
2018-07-03T04:15:08.257Z,76.40
2018-07-03T04:17:35.961Z,75.70
2018-07-03T04:20:04.007Z,74.60
2018-07-03T04:22:31.580Z,74.60
2018-07-03T04:24:59.142Z,74.60
2018-07-03T04:27:26.723Z,74.70
2018-07-03T04:29:54.285Z,73.90
2018-07-03T04:32:21.849Z,74.30
2018-07-03T04:34:49.466Z,74.20
2018-07-03T04:37:18.065Z,75.10
2018-07-03T04:39:45.722Z,74.80
2018-07-03T04:42:13.288Z,75.10
2018-07-03T04:44:41.223Z,74.40
2018-07-03T04:47:08.951Z,75.60
2018-07-03T04:49:36.544Z,75.10
2018-07-03T04:52:04.097Z,75.30
2018-07-03T04:54:31.698Z,74.60
2018-07-03T04:56:59.278Z,74.60
2018-07-03T04:59:26.850Z,74.60
2018-07-03T05:01:54.449Z,74.20
2018-07-03T05:04:22.052Z,74.10
2018-07-03T05:06:49.595Z,72.70
2018-07-03T05:09:17.199Z,72.80
2018-07-03T05:11:45.059Z,72.90
2018-07-03T05:14:12.639Z,72.60
2018-07-03T05:16:40.213Z,72.10
2018-07-03T05:19:07.859Z,71.30
2018-07-03T05:21:35.458Z,70.70
2018-07-03T05:24:03.133Z,70.20
2018-07-03T05:26:30.728Z,70.20
2018-07-03T05:28:58.290Z,70.50
2018-07-03T05:31:25.969Z,70.90
2018-07-03T05:33:53.829Z,70.90
2018-07-03T05:36:21.421Z,70.00
2018-07-03T05:38:48.964Z,70.10
2018-07-03T05:41:16.525Z,70.80
2018-07-03T05:43:44.105Z,70.40
2018-07-03T05:46:11.713Z,69.40
2018-07-03T05:48:39.245Z,69.70
2018-07-03T05:51:07.157Z,69.50
2018-07-03T05:53:34.815Z,69.40
2018-07-03T05:56:02.650Z,68.70
2018-07-03T05:58:30.118Z,69.00
2018-07-03T06:00:57.681Z,68.90
2018-07-03T06:03:25.215Z,68.90
2018-07-03T06:05:52.793Z,69.50
2018-07-03T06:08:20.370Z,68.50
2018-07-03T06:10:47.986Z,68.50
2018-07-03T06:13:15.690Z,68.80
2018-07-03T06:15:43.261Z,68.50
2018-07-03T06:18:10.838Z,68.60
2018-07-03T06:20:38.421Z,68.20
2018-07-03T06:23:05.961Z,68.30
2018-07-03T06:25:33.562Z,68.40
2018-07-03T06:28:01.393Z,67.60
2018-07-03T06:30:28.952Z,66.70
2018-07-03T06:32:56.530Z,66.60
2018-07-03T06:35:24.095Z,66.50
2018-07-03T06:37:51.646Z,66.50
2018-07-03T06:40:19.217Z,66.50
2018-07-03T06:42:48.108Z,66.60
2018-07-03T06:45:20.209Z,65.60
2018-07-03T06:47:47.965Z,65.70
2018-07-03T06:50:15.517Z,65.70
2018-07-03T06:52:43.096Z,65.40
2018-07-03T06:55:10.670Z,65.40
2018-07-03T06:57:38.216Z,64.80
2018-07-03T07:00:06.002Z,62.80
2018-07-03T07:02:33.588Z,62.60
2018-07-03T07:05:01.251Z,62.50
2018-07-03T07:07:29.457Z,62.10
2018-07-03T07:09:57.077Z,62.00
2018-07-03T07:12:24.637Z,62.00
2018-07-03T07:14:55.014Z,61.80
2018-07-03T07:17:22.810Z,61.00
2018-07-03T07:19:50.401Z,60.80
2018-07-03T07:22:18.505Z,60.50
2018-07-03T07:24:46.158Z,59.80
2018-07-03T07:27:13.746Z,59.80
2018-07-03T07:29:42.147Z,58.80
2018-07-03T07:32:09.761Z,58.60
2018-07-03T07:34:37.373Z,58.50
2018-07-03T07:37:04.941Z,57.60
2018-07-03T07:39:32.468Z,57.30
2018-07-03T07:42:00.055Z,57.80
2018-07-03T07:44:27.579Z,57.20
2018-07-03T07:46:55.129Z,57.00
2018-07-03T07:51:51.378Z,56.40
2018-07-03T07:54:18.936Z,56.30
2018-07-03T07:56:46.503Z,55.90
2018-07-03T07:59:14.070Z,54.60
2018-07-03T08:01:41.641Z,53.50
2018-07-03T08:04:09.201Z,52.00
2018-07-03T08:06:36.804Z,53.00
2018-07-03T08:09:07.186Z,52.80
2018-07-03T08:11:35.621Z,52.10
2018-07-03T08:14:03.429Z,51.30
2018-07-03T08:16:31.044Z,47.40
2018-07-03T08:18:58.566Z,44.70
2018-07-03T08:21:26.357Z,45.00
2018-07-03T08:23:53.909Z,45.10
2018-07-03T08:26:21.466Z,45.00
2018-07-03T08:28:49.055Z,44.90
2018-07-03T08:31:16.649Z,44.70
2018-07-03T08:33:44.221Z,44.60
2018-07-03T08:36:11.950Z,45.80
2018-07-03T08:38:39.571Z,45.90
2018-07-03T08:41:07.257Z,45.30
2018-07-03T08:43:34.850Z,45.90
2018-07-03T08:46:02.422Z,46.30
2018-07-03T08:48:30.943Z,46.70
2018-07-03T08:53:33.011Z,44.00
2018-07-03T08:56:00.573Z,42.70
2018-07-03T08:58:28.150Z,43.70
2018-07-03T09:00:55.876Z,43.20
2018-07-03T09:03:23.782Z,43.60
2018-07-03T09:05:51.570Z,44.20
2018-07-03T09:08:19.161Z,43.60
2018-07-03T09:10:46.753Z,42.50
2018-07-03T09:13:14.337Z,43.10
2018-07-03T09:15:41.912Z,42.60
2018-07-03T09:18:09.535Z,41.80
2018-07-03T09:20:37.072Z,42.80
2018-07-03T09:23:04.734Z,41.30
2018-07-03T09:25:32.288Z,41.60
2018-07-03T09:27:59.837Z,40.70
2018-07-03T09:30:27.450Z,41.60
2018-07-03T09:32:55.054Z,38.30
2018-07-03T09:35:22.588Z,39.20
2018-07-03T09:37:50.218Z,40.50
2018-07-03T09:40:18.006Z,38.30
2018-07-03T09:42:45.817Z,38.00
2018-07-03T09:45:13.407Z,40.30
2018-07-03T09:47:41.673Z,40.00
2018-07-03T09:50:10.475Z,39.90
2018-07-03T09:52:39.430Z,38.20
2018-07-03T09:55:07.289Z,37.90
2018-07-03T09:57:36.109Z,34.60
2018-07-03T10:00:04.542Z,34.70
2018-07-03T10:02:32.165Z,32.80
2018-07-03T10:04:59.709Z,33.90
2018-07-03T10:07:27.258Z,32.80
2018-07-03T10:09:54.824Z,31.80
2018-07-03T10:12:22.734Z,31.80
2018-07-03T10:14:50.561Z,32.00
2018-07-03T10:17:18.492Z,31.70
2018-07-03T10:19:46.138Z,31.80
2018-07-03T10:22:14.093Z,32.10
2018-07-03T10:24:41.781Z,32.20
2018-07-03T10:27:09.413Z,31.00
2018-07-03T10:29:37.358Z,31.60
2018-07-03T10:32:05.079Z,31.30
2018-07-03T10:34:32.729Z,32.30
2018-07-03T10:37:00.438Z,29.80
2018-07-03T10:39:28.018Z,30.20
2018-07-03T10:41:55.837Z,29.90
2018-07-03T10:44:23.565Z,30.80
2018-07-03T10:46:51.106Z,32.40
2018-07-03T10:49:18.858Z,31.50
2018-07-03T10:51:46.669Z,32.00
2018-07-03T10:54:14.665Z,32.40
2018-07-03T10:56:42.517Z,30.70
2018-07-03T10:59:10.363Z,30.60
2018-07-03T11:01:38.142Z,30.10
2018-07-03T11:04:06.112Z,30.80
2018-07-03T11:06:34.011Z,30.30
2018-07-03T11:09:01.582Z,28.80
2018-07-03T11:11:29.274Z,28.70
2018-07-03T11:13:56.899Z,29.50
2018-07-03T11:16:24.436Z,29.40
2018-07-03T11:18:52.412Z,30.00
2018-07-03T11:21:19.966Z,30.50
2018-07-03T11:23:48.097Z,29.50
2018-07-03T11:26:15.642Z,29.10
2018-07-03T11:28:43.226Z,29.20
2018-07-03T11:31:10.825Z,29.30
2018-07-03T11:33:38.494Z,28.20
2018-07-03T11:36:06.046Z,27.80
2018-07-03T11:38:33.594Z,28.70
2018-07-03T11:41:01.645Z,28.80
2018-07-03T11:43:29.242Z,28.70
2018-07-03T11:45:56.781Z,28.40
2018-07-03T11:48:24.374Z,28.60
2018-07-03T11:50:55.368Z,27.70
2018-07-03T11:53:23.008Z,28.00
2018-07-03T11:55:51.254Z,28.30
2018-07-03T11:58:18.821Z,27.80
2018-07-03T12:00:46.398Z,27.90
2018-07-03T12:03:13.994Z,27.80
2018-07-03T12:05:41.628Z,27.90
2018-07-03T12:08:09.431Z,27.50
2018-07-03T12:10:36.997Z,26.70
2018-07-03T12:13:04.566Z,26.50
2018-07-03T12:15:32.287Z,26.40
2018-07-03T12:17:59.885Z,23.80
2018-07-03T12:20:27.473Z,24.50
2018-07-03T12:22:55.106Z,25.80
2018-07-03T12:25:22.948Z,25.80
2018-07-03T12:27:50.507Z,26.70
2018-07-03T12:30:18.290Z,25.10
2018-07-03T12:32:45.845Z,23.80
2018-07-03T12:35:13.457Z,24.60
2018-07-03T12:37:41.034Z,25.00
2018-07-03T12:40:08.877Z,24.60
2018-07-03T12:42:36.482Z,24.50
2018-07-03T12:45:04.397Z,25.00
2018-07-03T12:47:31.970Z,25.50
2018-07-03T12:49:59.949Z,24.60
2018-07-03T12:52:27.505Z,25.20
2018-07-03T12:54:55.119Z,25.50
2018-07-03T12:57:22.693Z,25.00
2018-07-03T13:02:17.804Z,25.50
2018-07-03T13:04:45.394Z,24.00
2018-07-03T13:07:13.455Z,23.60
2018-07-03T13:09:41.375Z,24.90
2018-07-03T13:12:09.035Z,25.20
2018-07-03T13:14:36.674Z,23.90
2018-07-03T13:17:04.580Z,24.70
2018-07-03T13:19:32.334Z,24.80
2018-07-03T13:22:00.115Z,24.50
2018-07-03T13:24:27.772Z,22.50
2018-07-03T13:26:55.365Z,23.20
2018-07-03T13:29:22.982Z,22.70
2018-07-03T13:31:50.590Z,22.40
2018-07-03T13:34:18.127Z,24.40
2018-07-03T13:36:46.105Z,24.40
2018-07-03T13:39:13.701Z,23.20
2018-07-03T13:41:41.523Z,23.60
2018-07-03T13:44:09.077Z,23.30
2018-07-03T13:46:36.699Z,22.70
2018-07-03T13:49:04.501Z,22.10
2018-07-03T13:51:32.085Z,22.20
2018-07-03T13:53:59.660Z,21.70
2018-07-03T13:56:27.243Z,22.30
2018-07-03T13:58:54.850Z,21.40
2018-07-03T14:01:22.462Z,22.00
2018-07-03T14:03:50.130Z,22.00
2018-07-03T14:06:17.730Z,20.80
2018-07-03T14:08:45.337Z,20.80
2018-07-03T14:11:12.937Z,20.10
2018-07-03T14:13:40.705Z,20.10
2018-07-03T14:16:08.389Z,18.20
2018-07-03T14:18:50.966Z,17.40
2018-07-03T14:21:18.711Z,18.20
2018-07-03T14:23:46.295Z,17.70
2018-07-03T14:26:14.471Z,17.40
2018-07-03T14:28:42.025Z,16.60
2018-07-03T14:31:09.669Z,16.00
2018-07-03T14:33:37.674Z,17.20
2018-07-03T14:36:05.710Z,18.00
2018-07-03T14:38:33.296Z,16.70
2018-07-03T14:41:00.950Z,16.50
2018-07-03T14:43:28.620Z,16.40
2018-07-03T14:45:56.421Z,16.00
2018-07-03T14:48:24.049Z,15.70
2018-07-03T14:50:51.643Z,15.60
2018-07-03T14:53:19.269Z,15.60
2018-07-03T14:55:46.917Z,16.50
2018-07-03T14:58:14.510Z,16.20
2018-07-03T15:00:42.093Z,17.10
2018-07-03T15:03:09.721Z,15.70
2018-07-03T15:05:37.302Z,15.90
2018-07-03T15:08:08.101Z,16.50
2018-07-03T15:10:36.221Z,16.50
2018-07-03T15:15:32.009Z,15.20
2018-07-03T15:17:59.631Z,15.80
2018-07-03T15:20:27.219Z,15.40
2018-07-03T15:22:55.118Z,16.00
2018-07-03T15:25:22.715Z,16.20
2018-07-03T15:27:50.547Z,17.40
2018-07-03T15:30:19.578Z,16.90
2018-07-03T15:32:47.473Z,16.10
2018-07-03T15:35:15.220Z,18.30
2018-07-03T15:37:43.006Z,17.20
2018-07-03T15:40:10.942Z,16.60
2018-07-03T15:42:38.877Z,15.90
2018-07-03T15:45:10.745Z,15.90
2018-07-03T15:47:38.760Z,15.60
2018-07-03T15:50:08.963Z,15.30
2018-07-03T15:52:40.546Z,16.30
2018-07-03T15:55:09.353Z,16.10
2018-07-03T15:57:37.034Z,16.20
2018-07-03T16:00:06.426Z,16.40
2018-07-03T16:02:34.285Z,15.10
2018-07-03T16:05:16.467Z,15.80
2018-07-03T16:08:08.634Z,15.00
2018-07-03T16:10:36.222Z,14.70
2018-07-03T16:13:04.265Z,14.70
2018-07-03T16:15:31.928Z,14.90
2018-07-03T16:17:59.747Z,14.90
2018-07-03T16:20:33.691Z,15.40
2018-07-03T16:23:02.189Z,15.50
2018-07-03T16:25:29.860Z,16.30
2018-07-03T16:27:57.377Z,15.10
2018-07-03T16:30:24.975Z,15.20
2018-07-03T16:32:52.801Z,15.30
2018-07-03T16:35:20.397Z,15.40
2018-07-03T16:37:49.466Z,16.70
2018-07-03T16:40:17.175Z,16.40
2018-07-03T16:42:44.829Z,18.00
2018-07-03T16:45:12.457Z,15.90
2018-07-03T16:47:40.035Z,17.20
2018-07-03T16:50:16.746Z,16.80
2018-07-03T16:52:44.416Z,15.80
2018-07-03T16:55:12.071Z,15.00
2018-07-03T16:57:42.018Z,15.10
2018-07-03T17:00:09.761Z,15.90
2018-07-03T17:02:37.418Z,15.80
2018-07-03T17:05:05.022Z,16.00
2018-07-03T17:07:32.566Z,17.10
2018-07-03T17:10:00.197Z,16.60
2018-07-03T17:12:27.857Z,17.10
2018-07-03T17:14:55.575Z,17.10
2018-07-03T17:17:23.124Z,17.80
2018-07-03T17:19:50.951Z,17.60
2018-07-03T17:22:18.717Z,19.40
2018-07-03T17:24:46.306Z,18.80
2018-07-03T17:27:14.642Z,19.10
2018-07-03T17:29:42.196Z,19.70
2018-07-03T17:32:09.756Z,19.80
2018-07-03T17:34:37.368Z,21.10
2018-07-03T17:37:04.930Z,24.30
2018-07-03T17:39:43.779Z,24.20
2018-07-03T17:42:23.676Z,26.60
2018-07-03T17:45:59.178Z,24.40
2018-07-03T17:48:26.762Z,25.60
2018-07-03T17:50:54.336Z,25.40
2018-07-03T17:53:21.951Z,25.40
2018-07-03T17:55:49.561Z,24.50
2018-07-03T17:58:17.182Z,25.40
2018-07-03T18:00:44.778Z,24.30
2018-07-03T18:03:12.370Z,24.90
2018-07-03T18:05:39.922Z,24.90
2018-07-03T18:08:07.489Z,25.20
2018-07-03T18:10:35.082Z,28.10
2018-07-03T18:13:02.844Z,26.10
2018-07-03T18:15:30.492Z,26.70
2018-07-03T18:17:58.061Z,26.90
2018-07-03T18:20:25.703Z,29.10
2018-07-03T18:22:53.368Z,28.30
2018-07-03T18:25:21.115Z,29.40
2018-07-03T18:27:48.670Z,32.20
2018-07-03T18:30:16.529Z,32.20
2018-07-03T18:32:44.102Z,31.30
2018-07-03T18:35:11.734Z,32.70
2018-07-03T18:37:39.281Z,34.30
2018-07-03T18:40:06.896Z,34.00
2018-07-03T18:42:34.477Z,35.00
2018-07-03T18:45:02.430Z,34.70
2018-07-03T18:47:30.894Z,36.20
2018-07-03T18:49:58.454Z,37.80
2018-07-03T18:52:26.158Z,37.40
2018-07-03T18:54:53.896Z,38.20
2018-07-03T18:57:21.485Z,38.10
2018-07-03T18:59:49.065Z,37.70
2018-07-03T19:02:16.645Z,38.10
2018-07-03T19:04:44.218Z,39.10
2018-07-03T19:07:11.838Z,39.80
2018-07-03T19:09:39.393Z,40.30
2018-07-03T19:12:07.030Z,39.70
2018-07-03T19:14:34.626Z,40.80
2018-07-03T19:17:02.233Z,40.60
2018-07-03T19:19:29.812Z,39.70
2018-07-03T19:21:57.440Z,39.80
2018-07-03T19:24:25.018Z,41.60
2018-07-03T19:26:52.724Z,39.40
2018-07-03T19:29:20.302Z,40.90
2018-07-03T19:31:47.895Z,40.50
2018-07-03T19:34:15.743Z,40.50
2018-07-03T19:36:43.366Z,41.40
2018-07-03T19:39:12.306Z,41.50
2018-07-03T19:41:40.512Z,41.90
2018-07-03T19:44:08.134Z,41.90
2018-07-03T19:46:42.510Z,41.60
2018-07-03T19:49:10.134Z,41.50
2018-07-03T19:51:37.769Z,41.80
2018-07-03T19:54:05.317Z,42.60
2018-07-03T19:56:32.895Z,42.30
2018-07-03T19:59:00.514Z,42.10
2018-07-03T20:01:28.232Z,43.20
2018-07-03T20:03:55.817Z,43.80
2018-07-03T20:06:23.410Z,44.10
2018-07-03T20:08:51.098Z,44.90
2018-07-03T20:11:20.608Z,46.30
2018-07-03T20:13:48.193Z,47.40
2018-07-03T20:16:15.985Z,47.40
2018-07-03T20:18:43.697Z,47.60
2018-07-03T20:21:11.281Z,48.00
2018-07-03T20:23:39.127Z,47.90
2018-07-03T20:26:07.134Z,46.90
2018-07-03T20:28:34.770Z,46.90
2018-07-03T20:31:02.358Z,45.70
2018-07-03T20:33:29.962Z,46.20
2018-07-03T20:35:57.530Z,46.20
2018-07-03T20:38:25.110Z,46.90
2018-07-03T20:40:55.489Z,46.30
2018-07-03T20:43:23.847Z,45.80
2018-07-03T20:45:51.429Z,45.00
2018-07-03T20:48:19.085Z,44.60
2018-07-03T20:50:46.653Z,44.50
2018-07-03T20:53:14.246Z,45.30
2018-07-03T20:55:41.974Z,47.00
2018-07-03T20:58:09.648Z,48.70
2018-07-03T21:00:37.213Z,46.20
2018-07-03T21:03:05.068Z,48.60
2018-07-03T21:05:32.851Z,49.10
2018-07-03T21:08:00.395Z,49.80
2018-07-03T21:10:27.965Z,49.20
2018-07-03T21:12:55.558Z,49.70
2018-07-03T21:15:23.701Z,49.90
2018-07-03T21:17:51.274Z,50.00
2018-07-03T21:20:19.318Z,51.20
2018-07-03T21:22:46.926Z,50.90
2018-07-03T21:25:14.497Z,51.60
2018-07-03T21:27:42.646Z,52.90
2018-07-03T21:30:10.299Z,53.50
2018-07-03T21:32:37.938Z,53.50
2018-07-03T21:35:05.493Z,53.90
2018-07-03T21:37:33.242Z,55.00
2018-07-03T21:40:00.785Z,54.80
2018-07-03T21:42:28.357Z,55.80
2018-07-03T21:44:55.897Z,56.50
2018-07-03T21:47:23.469Z,56.90
2018-07-03T21:49:51.934Z,56.90
2018-07-03T21:52:19.811Z,57.70
2018-07-03T21:54:47.498Z,58.60
2018-07-03T21:57:15.091Z,57.90
2018-07-03T21:59:42.686Z,58.90
2018-07-03T22:02:10.328Z,59.70
2018-07-03T22:04:37.882Z,60.20
2018-07-03T22:07:05.449Z,61.20
2018-07-03T22:09:33.038Z,61.60
2018-07-03T22:12:00.909Z,62.70
2018-07-03T22:14:28.474Z,63.00
2018-07-03T22:16:56.047Z,63.30
2018-07-03T22:19:23.789Z,64.30
2018-07-03T22:21:51.413Z,63.80
2018-07-03T22:24:18.956Z,64.10
2018-07-03T22:26:46.516Z,65.00
2018-07-03T22:29:14.093Z,64.90
2018-07-03T22:31:41.730Z,65.70
2018-07-03T22:34:09.310Z,65.60
2018-07-03T22:36:36.902Z,66.60
2018-07-03T22:39:06.390Z,66.70
2018-07-03T22:41:33.939Z,66.70
2018-07-03T22:44:01.518Z,67.00
2018-07-03T22:46:29.226Z,66.90
2018-07-03T22:48:56.794Z,66.60
2018-07-03T22:51:24.406Z,66.70
2018-07-03T22:53:52.099Z,67.10
2018-07-03T22:56:19.621Z,66.60
2018-07-03T22:58:47.702Z,67.60
2018-07-03T23:01:15.250Z,67.50
2018-07-03T23:03:42.829Z,67.20
2018-07-03T23:06:10.374Z,67.20
2018-07-03T23:08:37.971Z,67.00
2018-07-03T23:11:05.572Z,66.30
2018-07-03T23:13:33.192Z,66.30
2018-07-03T23:16:00.750Z,66.50
2018-07-03T23:18:28.462Z,66.60
2018-07-03T23:20:56.389Z,66.90
2018-07-03T23:23:23.985Z,66.90
2018-07-03T23:25:51.595Z,67.30
2018-07-03T23:28:19.166Z,68.70
2018-07-03T23:30:46.833Z,68.10
2018-07-03T23:33:14.434Z,67.60
2018-07-03T23:35:42.027Z,67.60
2018-07-03T23:38:09.569Z,67.80
2018-07-03T23:40:37.192Z,67.30
2018-07-03T23:43:04.826Z,67.30
2018-07-03T23:45:39.554Z,68.00
2018-07-03T23:48:18.494Z,67.90
2018-07-03T23:50:57.474Z,68.10
2018-07-03T23:53:36.629Z,68.00
2018-07-03T23:56:15.529Z,68.00
2018-07-03T23:58:54.901Z,68.70
